D/T METAR WX W/SPE G/SPE TEMP DEWP FEEL
25/05/22 01:50 EGPA 250050Z AUTO 18006KT 9999 NCD 08/07 Q0998 6.9mph 8°C 7°C 8.0°C
25/05/22 01:20 EGPA 250020Z AUTO 18004KT 9999 BKN044/// 08/07 Q0999 4.6mph 8°C 7°C 8.0°C
25/05/22 00:50 EGPA 242350Z AUTO 19005KT 9999 FEW034/// BKN043/// 09/07 Q0999 5.8mph 9°C 7°C 9.0°C
25/05/22 00:20 EGPA 242320Z AUTO 18005KT 9999 BKN037/// 09/08 Q0999 5.8mph 9°C 8°C 9.4°C
24/05/22 23:50 EGPA 242250Z AUTO 18004KT 9999 SCT040/// 08/07 Q1000 4.6mph 8°C 7°C 8.0°C
24/05/22 23:20 EGPA 242220Z AUTO 20004KT 9999 FEW021/// OVC039/// 09/08 Q1000 4.6mph 9°C 8°C 9.4°C
24/05/22 22:50 EGPA 242150Z AUTO 20004KT 9999 BKN047/// 09/08 Q1000 4.6mph 9°C 8°C 9.4°C
24/05/22 22:20 EGPA 242120Z AUTO 20005KT 9999 NCD 08/06 Q1000 5.8mph 8°C 6°C 7.6°C
24/05/22 21:50 EGPA 242050Z AUTO 21002KT 9999 NCD 08/06 Q1000 2.3mph 8°C 6°C 7.6°C
24/05/22 21:20 EGPA 242020Z AUTO 21003KT 9999 NCD 08/06 Q1000 3.5mph 8°C 6°C 7.6°C
24/05/22 20:50 EGPA 241950Z 25002KT 9999 FEW028 11/07 Q1000 2.3mph 11°C 7°C 11.0°C
24/05/22 20:20 EGPA 241920Z 28004KT 9999 FEW028 11/07 Q1000 4.6mph 11°C 7°C 11.0°C
24/05/22 19:50 EGPA 241850Z 29006KT 9999 FEW028 12/06 Q1000 6.9mph 12°C 6°C 11.6°C
24/05/22 19:20 EGPA 241820Z 30005KT 270V340 9999 FEW026 12/06 Q1000 5.8mph 12°C 6°C 11.6°C
24/05/22 18:50 EGPA 241750Z 32006KT 9999 FEW026 12/06 Q1000 6.9mph 12°C 6°C 11.6°C
24/05/22 18:20 EGPA 241720Z 32008KT 9999 FEW026 13/06 Q1000 9.2mph 13°C 6°C 12.6°C
24/05/22 17:50 EGPA 241650Z 30008KT 9999 FEW026 13/06 Q1000 9.2mph 13°C 6°C 12.6°C
24/05/22 17:20 EGPA 241620Z 29009KT 9999 FEW026 13/06 Q1000 10.4mph 13°C 6°C 12.6°C
24/05/22 16:20 EGPA 241520Z 31007KT 9999 FEW012 SCT030 12/07 Q1000 8.1mph 12°C 7°C 12.0°C
24/05/22 15:50 EGPA 241450Z 30010KT 9999 FEW012 SCT022 BKN048 11/07 Q1000 11.5mph 11°C 7°C 11.0°C
24/05/22 14:50 EGPA 241350Z 34008KT 9999 FEW012 SCT028 11/08 Q1000 9.2mph 11°C 8°C 11.4°C
24/05/22 14:20 EGPA 241320Z 35011KT 9999 FEW012 SCT030 11/07 Q1000 12.7mph 11°C 7°C 11.0°C
24/05/22 13:50 EGPA 241250Z 34011KT 9999 FEW012 SCT030 12/07 Q1000 12.7mph 12°C 7°C 12.0°C
24/05/22 13:20 EGPA 241220Z 34011KT 9999 FEW008 SCT033 12/07 Q1000 12.7mph 12°C 7°C 12.0°C
24/05/22 12:20 EGPA 241120Z 34009KT 9999 FEW008 SCT033 11/07 Q1000 10.4mph 11°C 7°C 11.0°C
24/05/22 11:50 EGPA 241050Z 35009KT 9999 FEW008 SCT023 11/07 Q0999 10.4mph 11°C 7°C 11.0°C
24/05/22 11:20 EGPA 241020Z 34010KT 9999 FEW006 SCT017 11/07 Q0999 11.5mph 11°C 7°C 11.0°C
24/05/22 10:50 EGPA 240950Z 34012KT 9999 FEW006 SCT017 11/07 Q0999 13.8mph 11°C 7°C 11.0°C
24/05/22 10:20 EGPA 240920Z 34011KT 9999 SCT017 11/07 Q0999 12.7mph 11°C 7°C 11.0°C
24/05/22 09:50 EGPA 240850Z 36010KT 9999 SCT010 SCT043 11/07 Q0999 11.5mph 11°C 7°C 11.0°C
24/05/22 09:20 EGPA 240820Z 35010KT 9999 SCT010 SCT043 10/07 Q0999 11.5mph 10°C 7°C 10.0°C
24/05/22 08:50 EGPA 240750Z 34011KT 9999 SCT010 SCT043 10/07 Q0999 12.7mph 10°C 7°C 10.0°C
24/05/22 08:20 EGPA 240720Z 34010KT 9999 SCT013 SCT043 10/07 Q0999 11.5mph 10°C 7°C 10.0°C
24/05/22 07:50 EGPA 240650Z 35010KT 9999 FEW008 SCT043 10/07 Q0999 11.5mph 10°C 7°C 10.0°C
24/05/22 07:20 EGPA 240620Z 35010KT 9999 FEW008 SCT043 10/07 Q0999 11.5mph 10°C 7°C 10.0°C
24/05/22 06:50 EGPA 240550Z 34008KT 9999 FEW008 SCT043 09/07 Q0999 9.2mph 9°C 7°C 9.0°C
24/05/22 06:20 EGPA 240520Z 34010KT 9999 FEW008 SCT043 09/07 Q0999 11.5mph 9°C 7°C 9.0°C
24/05/22 05:50 EGPA 240450Z AUTO 33008KT 9999 BKN049/// 09/07 Q0999 9.2mph 9°C 7°C 9.0°C
24/05/22 05:20 EGPA 240420Z AUTO 33008KT 9999 FEW025/// BKN047/// 09/07 Q0999 9.2mph 9°C 7°C 9.0°C
24/05/22 04:50 EGPA 240350Z AUTO 33006KT 9999 SCT018/// 09/07 Q0999 6.9mph 9°C 7°C 9.0°C
24/05/22 04:20 EGPA 240320Z AUTO 34007KT 9999 SCT023/// OVC049/// 09/07 Q0999 8.1mph 9°C 7°C 9.0°C
24/05/22 03:50 EGPA 240250Z AUTO 35007KT 9999 OVC048/// 09/07 Q0999 8.1mph 9°C 7°C 9.0°C
24/05/22 03:20 EGPA 240220Z AUTO 35008KT 9999 FEW011/// SCT017/// OVC047/// 09/07 Q0999 9.2mph 9°C 7°C 9.0°C
24/05/22 02:20 EGPA 240120Z AUTO 33005KT 9999 SCT012/// OVC047/// 09/07 Q0999 5.8mph 9°C 7°C 9.0°C
24/05/22 01:50 EGPA 240050Z AUTO 35007KT 9999 BKN022/// 09/07 Q0999 8.1mph 9°C 7°C 9.0°C
24/05/22 01:20 EGPA 240020Z 35007KT 9999 FEW010 BKN046 09/07 Q0999 8.1mph 9°C 7°C 9.0°C
24/05/22 00:50 EGPA 232350Z 34007KT 9999 FEW010 BKN046 09/08 Q0999 8.1mph 9°C 8°C 9.4°C
24/05/22 00:20 EGPA 232320Z 32005KT 9999 FEW012 BKN046 09/08 Q0999 5.8mph 9°C 8°C 9.4°C
23/05/22 23:50 EGPA 232250Z AUTO 33005KT 9999 NCD 09/08 Q0999 5.8mph 9°C 8°C 9.4°C
23/05/22 23:20 EGPA 232220Z AUTO 32004KT 9999 NCD 08/07 Q0999 4.6mph 8°C 7°C 8.0°C
23/05/22 22:50 EGPA 232150Z AUTO 33003KT 9999 NCD 09/07 Q0999 3.5mph 9°C 7°C 9.0°C
23/05/22 21:50 EGPA 232050Z AUTO 33005KT 9999 FEW049/// 09/08 Q0999 5.8mph 9°C 8°C 9.4°C
23/05/22 21:20 EGPA 232020Z 33007KT 9999 FEW014 SCT048 10/08 Q0999 8.1mph 10°C 8°C 10.4°C
23/05/22 20:50 EGPA 231950Z 35006KT 9999 FEW014 SCT046 10/08 Q0999 6.9mph 10°C 8°C 10.4°C
23/05/22 20:20 EGPA 231920Z 34006KT 9999 FEW010 SCT040 10/08 Q0999 6.9mph 10°C 8°C 10.4°C
23/05/22 19:20 EGPA 231820Z 33006KT 9999 FEW008 SCT040 10/08 Q0999 6.9mph 10°C 8°C 10.4°C
23/05/22 18:50 EGPA 231750Z 34008KT 9999 FEW008 SCT036 10/08 Q0999 9.2mph 10°C 8°C 10.4°C
23/05/22 18:20 EGPA 231720Z 34008KT 9999 FEW006 SCT030 BKN042 11/08 Q0999 9.2mph 11°C 8°C 11.4°C
23/05/22 17:50 EGPA 231650Z 34008KT 9999 FEW006 SCT030 BKN048 11/08 Q0999 9.2mph 11°C 8°C 11.4°C
23/05/22 17:20 EGPA 231620Z 36006KT 9999 FEW006 SCT026 BKN032 10/08 Q0999 6.9mph 10°C 8°C 10.4°C
23/05/22 16:50 EGPA 231550Z 35007KT 9999 FEW006 SCT026 BKN032 10/08 Q0999 8.1mph 10°C 8°C 10.4°C
23/05/22 16:20 EGPA 231520Z 36007KT 9999 VCSH FEW006 SCT028 BKN032 11/09 Q0999 VCSH 8.1mph 11°C 9°C 11.8°C
23/05/22 15:50 EGPA 231450Z 35006KT 9999 VCSH FEW006 SCT022 BKN032 10/08 Q0999 VCSH 6.9mph 10°C 8°C 10.4°C
23/05/22 15:20 EGPA 231420Z 34006KT 9999 -SHRA FEW006 SCT012 BKN030 11/09 Q0999 -SHRA 6.9mph 11°C 9°C 11.8°C
23/05/22 14:50 EGPA 231350Z 34006KT 9999 -SHRA FEW008 SCT012 BKN036 11/08 Q0999 -SHRA 6.9mph 11°C 8°C 11.4°C
23/05/22 14:20 EGPA 231320Z 36003KT 330V030 9999 FEW008 SCT012 BKN021 11/08 Q0999 3.5mph 11°C 8°C 11.4°C
23/05/22 13:50 EGPA 231250Z VRB01KT 9999 SCT006 BKN011 BKN021 10/08 Q0999 1.2mph 10°C 8°C 10.4°C
23/05/22 13:20 EGPA 231220Z VRB02KT 8000 -DZ BKN011 BKN021 10/08 Q0999 -DZ 2.3mph 10°C 8°C 10.4°C
23/05/22 12:50 EGPA 231150Z VRB01KT 8000 -DZ SCT004 BKN019 10/07 Q0999 -DZ 1.2mph 10°C 7°C 10.0°C
23/05/22 12:20 EGPA 231120Z 32005KT 9999 6000W -DZ SCT004 BKN015 11/08 Q0999 -DZ 5.8mph 11°C 8°C 11.4°C
23/05/22 11:50 EGPA 231050Z VRB02KT 9999 VCSH SCT014 BKN022 11/07 Q0998 VCSH 2.3mph 11°C 7°C 11.0°C
23/05/22 11:20 EGPA 231020Z 36004KT 340V150 9999 SCT014 BKN022 11/07 Q0998 4.6mph 11°C 7°C 11.0°C
23/05/22 10:50 EGPA 230950Z 01004KT 340V070 9999 SCT014 BKN038 11/08 Q0998 4.6mph 11°C 8°C 11.4°C
23/05/22 10:20 EGPA 230920Z 34003KT 310V020 9999 SCT014 SCT038 11/07 Q0998 3.5mph 11°C 7°C 11.0°C
23/05/22 09:50 EGPA 230850Z 34003KT 310V010 9999 SCT014 BKN020 11/08 Q0999 3.5mph 11°C 8°C 11.4°C
23/05/22 09:20 EGPA 230820Z VRB02KT 9999 FEW008 SCT014 BKN018 11/07 Q0999 2.3mph 11°C 7°C 11.0°C
23/05/22 08:50 EGPA 230750Z 34004KT 9999 FEW008 SCT014 BKN018 10/08 Q0999 4.6mph 10°C 8°C 10.4°C
23/05/22 08:20 EGPA 230720Z 34003KT 9999 FEW008 SCT010 BKN019 10/08 Q0999 3.5mph 10°C 8°C 10.4°C
23/05/22 07:20 EGPA 230620Z 31004KT 9999 SCT010 BKN017 10/08 Q0998 4.6mph 10°C 8°C 10.4°C
23/05/22 06:50 EGPA 230550Z 31004KT 9999 FEW005 BKN018 10/08 Q0998 4.6mph 10°C 8°C 10.4°C
23/05/22 06:20 EGPA 230520Z 31006KT 9999 FEW005 BKN020 10/08 Q0998 6.9mph 10°C 8°C 10.4°C
23/05/22 05:50 EGPA 230450Z AUTO 32006KT 9999 SCT008/// OVC018/// 09/08 Q0998 6.9mph 9°C 8°C 9.4°C
23/05/22 05:20 EGPA 230420Z AUTO 32005KT 9999 BKN008/// BKN017/// 09/08 Q0998 5.8mph 9°C 8°C 9.4°C
23/05/22 04:50 EGPA 230350Z AUTO 32005KT 9999 FEW007/// SCT012/// BKN017/// 09/08 Q0998 5.8mph 9°C 8°C 9.4°C
23/05/22 04:20 EGPA 230320Z AUTO 31005KT 9999 -RA BKN005/// OVC014/// 09/08 Q0998 -RA 5.8mph 9°C 8°C 9.4°C
23/05/22 03:20 EGPA 230220Z 32004KT 9000 SCT004 BKN010 09/09 Q0998 4.6mph 9°C 9°C 9.8°C
23/05/22 02:20 EGPA 230120Z 34004KT 6000 SCT002 BKN010 09/09 Q0998 4.6mph 9°C 9°C 9.8°C
23/05/22 01:50 EGPA 230050Z 34005KT 6000 SCT004 BKN010 09/09 Q0998 5.8mph 9°C 9°C 9.8°C
23/05/22 01:20 EGPA 230020Z 34007KT 6000 FEW001 SCT004 BKN010 09/09 Q0998 8.1mph 9°C 9°C 9.8°C
23/05/22 00:50 EGPA 222350Z 35007KT 9999 FEW001 SCT008 BKN014 10/09 Q0998 8.1mph 10°C 9°C 10.8°C
23/05/22 00:20 EGPA 222320Z 34008KT 9999 FEW001 SCT010 BKN020 10/09 Q0998 9.2mph 10°C 9°C 10.8°C
22/05/22 23:50 EGPA 222250Z 34007KT 9999 VCSH FEW001 SCT010 BKN020 10/09 Q0998 VCSH 8.1mph 10°C 9°C 10.8°C
22/05/22 23:20 EGPA 222220Z 35006KT 9999 VCSH FEW001 SCT014 BKN020 10/10 Q0998 VCSH 6.9mph 10°C 10°C 11.3°C
22/05/22 22:50 EGPA 222150Z AUTO 34002KT 5000 BR SCT002/// 11/10 Q0998 RERA BR 2.3mph 11°C 10°C 12.3°C
22/05/22 22:20 EGPA 222120Z AUTO VRB01KT 3300 +RA SCT003/// BKN029/// BKN046/// 11/11 Q0999 RESHGR +RA 1.2mph 11°C 11°C 12.8°C
22/05/22 21:50 EGPA 222050Z AUTO 30003KT 3900 RA FEW006/// SCT012/// BKN017/// 11/11 Q0999 RESHGR RA 3.5mph 11°C 11°C 12.8°C